Ms Signal — SFWL — position and weather

sailwx.info

Track history (hours):
 
Tides and Currents Weather Stations Pressure Air Temp Water Temp Dewpoint Dewpoint Depression Visibility Wind Speed Wind Dir Waves Ship Positions

Ms Signal

Last reported at 2018-Feb-21 10:54 UTC. Time now 2018-Feb-24 08:45 UTC.
Position N 59°21' E 018°08'.

Length 16 m.

Type: Diving. MMSI: 265648340.

Date/timePositionNaut miles runAvg speedWind from/ knotsBaromVisibWave heightAir tempDewpointWater temp
2018-Feb-21 10:54N 59°21' E 018°08'1 3.5
2018-Feb-21 10:29N 59°19' E 018°08'1 2.6
2018-Feb-21 10:00N 59°19' E 018°06'1 2.6
2018-Feb-21 09:31N 59°20' E 018°05'0 0.1
2018-Feb-21 08:59N 59°20' E 018°05'0 0.0
2018-Feb-21 08:30N 59°20' E 018°05'2 4.5
2018-Feb-21 08:00N 59°19' E 018°09'2 3.0
2018-Feb-21 07:28N 59°21' E 018°08'0 0.0
2018-Feb-19 13:19N 59°21' E 018°08'0 0.3
2018-Feb-19 12:57N 59°21' E 018°08'0 0.2
2018-Feb-19 12:30N 59°21' E 018°08'2 3.5
2018-Feb-19 12:00N 59°19' E 018°09'0 0.9
2018-Feb-19 11:30N 59°19' E 018°08'0 0.0
2018-Feb-19 11:00N 59°19' E 018°08'0 0.0
2018-Feb-19 10:30N 59°19' E 018°08'1 2.7
2018-Feb-19 10:00N 59°20' E 018°09'1 1.5
2018-Feb-19 09:21N 59°21' E 018°08'0 0.0
2018-Feb-19 09:00N 59°21' E 018°08'0 0.0
2018-Feb-19 08:30N 59°21' E 018°08'2 3.4
2018-Feb-19 08:00N 59°19' E 018°09'2 4.2
2018-Feb-19 07:28N 59°18' E 018°04'2 4.5
2018-Feb-19 07:00N 59°19' E 018°01'3 5.4
2018-Feb-19 06:30N 59°19' E 018°06'2 4.2
2018-Feb-19 06:00N 59°21' E 018°08'  
2018-Feb-16 10:15N 59°21' E 018°08'1 5.0
2018-Feb-16 10:00N 59°20' E 018°09'3 5.0
2018-Feb-16 09:30N 59°19' E 018°05'0 0.0
2018-Feb-16 08:58N 59°19' E 018°05'0 0.0
2018-Feb-16 08:28N 59°19' E 018°05'0 0.0
2018-Feb-16 07:58N 59°19' E 018°05'0 0.0
2018-Feb-16 07:28N 59°19' E 018°05'0 0.2
2018-Feb-16 07:00N 59°19' E 018°05'2 4.1
2018-Feb-16 06:30N 59°19' E 018°09'1 3.0
2018-Feb-16 06:00N 59°21' E 018°08'0 0.0
2018-Feb-14 10:22N 59°21' E 018°08'0 0.2
2018-Feb-14 10:00N 59°21' E 018°08'0 0.2
2018-Feb-14 09:28N 59°21' E 018°08'1 1.4
2018-Feb-14 09:00N 59°21' E 018°07'0 0.2
2018-Feb-14 08:29N 59°21' E 018°07'1 1.1
2018-Feb-14 07:56N 59°22' E 018°06'1 2.1
2018-Feb-14 07:23N 59°21' E 018°08'0 0.0
2018-Feb-14 06:59N 59°21' E 018°08'0 0.0
2018-Feb-13 11:04N 59°21' E 018°08'0 4.0
2018-Feb-13 11:00N 59°21' E 018°08'1 2.6
2018-Feb-13 10:28N 59°19' E 018°07'1 2.7
2018-Feb-13 10:00N 59°20' E 018°09'1 0.5
2018-Feb-13 08:23N 59°21' E 018°08'1 1.8
2018-Feb-13 08:00N 59°21' E 018°07'0 0.0
2018-Feb-13 07:28N 59°21' E 018°07'0 0.0
2018-Feb-13 06:58N 59°21' E 018°07'0 0.0
2018-Feb-13 06:28N 59°21' E 018°07'1 1.3
2018-Feb-13 05:59N 59°21' E 018°08'0 0.0
2018-Feb-12 09:28N 59°21' E 018°08'2 3.6
2018-Feb-12 09:00N 59°20' E 018°11'1 2.9
2018-Feb-12 08:30N 59°19' E 018°13'0 0.2
2018-Feb-12 08:00N 59°19' E 018°13'0 0.9
2018-Feb-12 07:30N 59°20' E 018°13'2 3.7
2018-Feb-12 06:59N 59°20' E 018°09'1 1.8
2018-Feb-12 06:29N 59°21' E 018°08'0 0.0
2018-Feb-12 05:59N 59°21' E 018°08'  
Track history (hours):
 
Tides and Currents Weather Stations Pressure Air Temp Water Temp Dewpoint Dewpoint Depression Visibility Wind Speed Wind Dir Waves Ship Positions

Ms Signal

Last reported at 2018-Feb-21 10:54 UTC. Time now 2018-Feb-24 08:45 UTC.
Position N 59°21' E 018°08'.

Length 16 m.

Type: Diving. MMSI: 265648340.

Date/timePositionNaut miles runAvg speedWind from/ knotsBaromVisibWave heightAir tempDewpointWater temp
2018-Feb-21 10:54N 59°21' E 018°08'1 3.5
2018-Feb-21 10:29N 59°19' E 018°08'1 2.6
2018-Feb-21 10:00N 59°19' E 018°06'1 2.6
2018-Feb-21 09:31N 59°20' E 018°05'0 0.1
2018-Feb-21 08:59N 59°20' E 018°05'0 0.0
2018-Feb-21 08:30N 59°20' E 018°05'2 4.5
2018-Feb-21 08:00N 59°19' E 018°09'2 3.0
2018-Feb-21 07:28N 59°21' E 018°08'0 0.0
2018-Feb-19 13:19N 59°21' E 018°08'0 0.3
2018-Feb-19 12:57N 59°21' E 018°08'0 0.2
2018-Feb-19 12:30N 59°21' E 018°08'2 3.5
2018-Feb-19 12:00N 59°19' E 018°09'0 0.9
2018-Feb-19 11:30N 59°19' E 018°08'0 0.0
2018-Feb-19 11:00N 59°19' E 018°08'0 0.0
2018-Feb-19 10:30N 59°19' E 018°08'1 2.7
2018-Feb-19 10:00N 59°20' E 018°09'1 1.5
2018-Feb-19 09:21N 59°21' E 018°08'0 0.0
2018-Feb-19 09:00N 59°21' E 018°08'0 0.0
2018-Feb-19 08:30N 59°21' E 018°08'2 3.4
2018-Feb-19 08:00N 59°19' E 018°09'2 4.2
2018-Feb-19 07:28N 59°18' E 018°04'2 4.5
2018-Feb-19 07:00N 59°19' E 018°01'3 5.4
2018-Feb-19 06:30N 59°19' E 018°06'2 4.2
2018-Feb-19 06:00N 59°21' E 018°08'  
2018-Feb-16 10:15N 59°21' E 018°08'1 5.0
2018-Feb-16 10:00N 59°20' E 018°09'3 5.0
2018-Feb-16 09:30N 59°19' E 018°05'0 0.0
2018-Feb-16 08:58N 59°19' E 018°05'0 0.0
2018-Feb-16 08:28N 59°19' E 018°05'0 0.0
2018-Feb-16 07:58N 59°19' E 018°05'0 0.0
2018-Feb-16 07:28N 59°19' E 018°05'0 0.2
2018-Feb-16 07:00N 59°19' E 018°05'2 4.1
2018-Feb-16 06:30N 59°19' E 018°09'1 3.0
2018-Feb-16 06:00N 59°21' E 018°08'0 0.0
2018-Feb-14 10:22N 59°21' E 018°08'0 0.2
2018-Feb-14 10:00N 59°21' E 018°08'0 0.2
2018-Feb-14 09:28N 59°21' E 018°08'1 1.4
2018-Feb-14 09:00N 59°21' E 018°07'0 0.2
2018-Feb-14 08:29N 59°21' E 018°07'1 1.1
2018-Feb-14 07:56N 59°22' E 018°06'1 2.1
2018-Feb-14 07:23N 59°21' E 018°08'0 0.0
2018-Feb-14 06:59N 59°21' E 018°08'0 0.0
2018-Feb-13 11:04N 59°21' E 018°08'0 4.0
2018-Feb-13 11:00N 59°21' E 018°08'1 2.6
2018-Feb-13 10:28N 59°19' E 018°07'1 2.7
2018-Feb-13 10:00N 59°20' E 018°09'1 0.5
2018-Feb-13 08:23N 59°21' E 018°08'1 1.8
2018-Feb-13 08:00N 59°21' E 018°07'0 0.0
2018-Feb-13 07:28N 59°21' E 018°07'0 0.0
2018-Feb-13 06:58N 59°21' E 018°07'0 0.0
2018-Feb-13 06:28N 59°21' E 018°07'1 1.3
2018-Feb-13 05:59N 59°21' E 018°08'0 0.0
2018-Feb-12 09:28N 59°21' E 018°08'2 3.6
2018-Feb-12 09:00N 59°20' E 018°11'1 2.9
2018-Feb-12 08:30N 59°19' E 018°13'0 0.2
2018-Feb-12 08:00N 59°19' E 018°13'0 0.9
2018-Feb-12 07:30N 59°20' E 018°13'2 3.7
2018-Feb-12 06:59N 59°20' E 018°09'1 1.8
2018-Feb-12 06:29N 59°21' E 018°08'0 0.0
2018-Feb-12 05:59N 59°21' E 018°08'  

Dump ship's entire track history